createdAt,value
2018-10-18T00:01:40.530Z,14.83
2018-10-18T00:04:09.858Z,14.87
2018-10-18T00:06:39.264Z,15.43
2018-10-18T00:09:10.487Z,17.13
2018-10-18T00:11:39.917Z,16.70
2018-10-18T00:14:09.327Z,19.30
2018-10-18T00:16:38.713Z,18.93
2018-10-18T00:19:08.101Z,18.13
2018-10-18T00:21:38.446Z,21.50
2018-10-18T00:24:07.788Z,21.40
2018-10-18T00:26:37.166Z,20.93
2018-10-18T00:29:06.528Z,22.07
2018-10-18T00:31:35.869Z,20.33
2018-10-18T00:34:05.194Z,21.13
2018-10-18T00:36:34.558Z,23.93
2018-10-18T00:39:04.945Z,23.03
2018-10-18T00:41:34.287Z,24.83
2018-10-18T00:44:03.646Z,27.23
2018-10-18T00:46:32.964Z,26.27
2018-10-18T00:49:02.314Z,28.73
2018-10-18T00:51:31.738Z,26.53
2018-10-18T00:54:01.211Z,29.00
2018-10-18T00:56:30.518Z,26.87
2018-10-18T00:58:59.802Z,30.63
2018-10-18T01:01:29.166Z,31.03
2018-10-18T01:03:58.478Z,33.23
2018-10-18T01:06:27.870Z,33.97
2018-10-18T01:08:57.187Z,34.27
2018-10-18T01:11:26.545Z,35.70
2018-10-18T01:16:53.364Z,40.33
2018-10-18T01:19:23.441Z,35.73
2018-10-18T01:21:52.741Z,36.67
2018-10-18T01:24:22.029Z,34.60
2018-10-18T01:26:51.355Z,37.70
2018-10-18T01:29:20.637Z,42.17
2018-10-18T01:31:50.076Z,45.73
2018-10-18T01:34:19.414Z,38.00
2018-10-18T01:36:48.736Z,45.67
2018-10-18T01:39:18.034Z,46.40
2018-10-18T01:41:48.122Z,42.93
2018-10-18T01:44:17.571Z,49.30
2018-10-18T01:46:46.844Z,60.07
2018-10-18T01:49:16.160Z,60.97
2018-10-18T01:51:45.469Z,59.80
2018-10-18T01:54:14.865Z,63.57
2018-10-18T01:56:44.119Z,65.73
2018-10-18T01:59:13.542Z,62.87
2018-10-18T02:01:42.945Z,63.93
2018-10-18T02:04:12.287Z,64.07
2018-10-18T02:06:41.630Z,63.00
2018-10-18T02:09:11.905Z,59.93
2018-10-18T02:11:42.061Z,60.40
2018-10-18T02:14:12.327Z,49.60
2018-10-18T02:16:41.667Z,40.30
2018-10-18T02:19:11.066Z,34.83
2018-10-18T02:21:41.146Z,26.27
2018-10-18T02:24:10.477Z,19.23
2018-10-18T02:26:39.855Z,21.83
2018-10-18T02:29:09.347Z,18.60
2018-10-18T02:31:38.709Z,17.40
2018-10-18T02:34:08.035Z,18.67
2018-10-18T02:36:37.393Z,20.77
2018-10-18T02:39:08.529Z,23.77
2018-10-18T02:41:39.007Z,20.07
2018-10-18T02:44:08.361Z,18.33
2018-10-18T02:46:37.926Z,21.40
2018-10-18T02:49:07.248Z,24.87
2018-10-18T02:51:36.577Z,19.93
2018-10-18T02:54:06.084Z,24.57
2018-10-18T02:56:35.455Z,21.33
2018-10-18T02:59:05.348Z,22.90
2018-10-18T03:01:34.890Z,24.33
2018-10-18T03:04:04.314Z,24.13
2018-10-18T03:06:33.759Z,30.53
2018-10-18T03:09:03.190Z,26.07
2018-10-18T03:11:32.470Z,23.40
2018-10-18T03:14:02.492Z,27.23
2018-10-18T03:16:31.800Z,29.27
2018-10-18T03:19:01.157Z,28.73
2018-10-18T03:21:31.133Z,27.50
2018-10-18T03:24:00.454Z,25.97
2018-10-18T03:26:29.746Z,27.37
2018-10-18T03:28:59.069Z,25.13
2018-10-18T03:31:28.396Z,28.83
2018-10-18T03:33:57.762Z,24.20
2018-10-18T03:36:27.145Z,26.27
2018-10-18T03:38:56.454Z,23.03
2018-10-18T03:41:25.921Z,28.03
2018-10-18T03:43:55.165Z,24.43
2018-10-18T03:46:24.509Z,19.27
2018-10-18T03:48:53.813Z,20.57
2018-10-18T03:51:23.881Z,25.90
2018-10-18T03:53:53.193Z,19.83
2018-10-18T03:56:22.498Z,24.97
2018-10-18T03:58:51.815Z,20.40
2018-10-18T04:01:21.124Z,19.53
2018-10-18T04:03:50.642Z,22.33
2018-10-18T04:06:19.998Z,16.90
2018-10-18T04:08:49.280Z,25.90
2018-10-18T04:11:18.911Z,20.60
2018-10-18T04:13:48.221Z,27.43
2018-10-18T04:16:17.542Z,21.73
2018-10-18T04:18:47.023Z,20.97
2018-10-18T04:21:16.355Z,25.23
2018-10-18T04:23:45.741Z,18.13
2018-10-18T04:26:15.056Z,22.17
2018-10-18T04:28:44.354Z,18.13
2018-10-18T04:31:13.761Z,21.53
2018-10-18T04:33:43.193Z,22.17
2018-10-18T04:36:12.634Z,20.93
2018-10-18T04:38:41.798Z,20.07
2018-10-18T04:41:11.157Z,18.10
2018-10-18T04:43:40.440Z,19.87
2018-10-18T04:46:10.519Z,21.60
2018-10-18T04:48:39.974Z,18.20
2018-10-18T04:51:09.390Z,21.00
2018-10-18T04:53:38.895Z,19.97
2018-10-18T04:56:08.411Z,19.53
2018-10-18T04:58:37.853Z,23.43
2018-10-18T05:01:07.345Z,18.97
2018-10-18T05:03:36.828Z,21.93
2018-10-18T05:06:06.919Z,24.47
2018-10-18T05:08:36.233Z,18.77
2018-10-18T05:11:05.614Z,23.83
2018-10-18T05:13:34.895Z,22.73
2018-10-18T05:16:04.847Z,21.40
2018-10-18T05:18:34.182Z,21.10
2018-10-18T05:21:03.526Z,27.17
2018-10-18T05:23:32.821Z,21.70
2018-10-18T05:26:02.306Z,21.50
2018-10-18T05:28:31.730Z,22.90
2018-10-18T05:31:01.013Z,19.87
2018-10-18T05:33:30.320Z,20.70
2018-10-18T05:36:00.189Z,20.23
2018-10-18T05:38:29.807Z,24.80
2018-10-18T05:40:59.123Z,16.13
2018-10-18T05:43:28.432Z,15.87
2018-10-18T05:45:57.737Z,16.80
2018-10-18T05:48:27.034Z,22.40
2018-10-18T05:50:56.421Z,14.83
2018-10-18T05:53:25.840Z,19.00
2018-10-18T05:55:55.124Z,16.63
2018-10-18T05:58:24.450Z,17.37
2018-10-18T06:00:53.777Z,15.60
2018-10-18T06:03:23.073Z,16.97
2018-10-18T06:05:52.358Z,21.63
2018-10-18T06:08:21.681Z,19.23
2018-10-18T06:11:02.113Z,16.40
2018-10-18T06:13:31.549Z,16.77
2018-10-18T06:16:00.876Z,17.40
2018-10-18T06:18:30.213Z,14.93
2018-10-18T06:21:00.273Z,15.93
2018-10-18T06:23:29.631Z,16.27
2018-10-18T06:25:58.879Z,14.13
2018-10-18T06:28:28.231Z,16.60
2018-10-18T06:30:57.560Z,16.57
2018-10-18T06:33:26.892Z,17.57
2018-10-18T06:35:56.582Z,15.07
2018-10-18T06:38:25.869Z,14.63
2018-10-18T06:40:55.171Z,15.33
2018-10-18T06:43:24.487Z,15.73
2018-10-18T06:45:53.823Z,14.27
2018-10-18T06:48:23.126Z,18.40
2018-10-18T06:50:52.442Z,14.97
2018-10-18T06:53:22.351Z,13.20
2018-10-18T06:55:51.647Z,15.30
2018-10-18T06:58:20.979Z,12.23
2018-10-18T07:00:51.041Z,10.87
2018-10-18T07:03:21.096Z,14.90
2018-10-18T07:05:50.378Z,12.67
2018-10-18T07:08:19.675Z,14.03
2018-10-18T07:10:49.015Z,16.73
2018-10-18T07:13:18.348Z,17.90
2018-10-18T07:15:47.721Z,12.67
2018-10-18T07:18:17.139Z,14.70
2018-10-18T07:20:46.391Z,14.27
2018-10-18T07:23:15.733Z,10.73
2018-10-18T07:25:45.035Z,14.17
2018-10-18T07:28:14.364Z,15.87
2018-10-18T07:30:43.721Z,14.40
2018-10-18T07:33:13.025Z,13.47
2018-10-18T07:35:42.401Z,11.87
2018-10-18T07:38:12.663Z,11.07
2018-10-18T07:40:41.974Z,10.53
2018-10-18T07:43:11.367Z,12.10
2018-10-18T07:45:40.712Z,12.10
2018-10-18T07:48:10.190Z,10.63
2018-10-18T07:50:39.331Z,8.73
2018-10-18T07:53:08.958Z,12.27
2018-10-18T07:55:39.044Z,10.07
2018-10-18T07:58:08.363Z,10.53
2018-10-18T08:00:38.111Z,12.33
2018-10-18T08:03:07.245Z,9.63
2018-10-18T08:05:36.644Z,6.27
2018-10-18T08:08:06.022Z,8.80
2018-10-18T08:10:35.336Z,14.70
2018-10-18T08:13:04.802Z,10.17
2018-10-18T08:15:34.233Z,6.87
2018-10-18T08:18:03.566Z,9.03
2018-10-18T08:20:32.860Z,7.50
2018-10-18T08:23:02.153Z,5.37
2018-10-18T08:25:31.459Z,8.90
2018-10-18T08:28:00.813Z,8.50
2018-10-18T08:30:30.255Z,6.43
2018-10-18T08:32:59.592Z,7.90
2018-10-18T08:35:28.977Z,8.03
2018-10-18T08:37:58.436Z,8.23
2018-10-18T08:40:27.648Z,8.70
2018-10-18T08:42:57.715Z,5.63
2018-10-18T08:45:27.018Z,6.60
2018-10-18T08:47:56.285Z,7.17
2018-10-18T08:50:26.393Z,6.37
2018-10-18T08:52:55.672Z,4.83
2018-10-18T08:55:25.012Z,4.77
2018-10-18T08:57:54.332Z,8.00
2018-10-18T09:00:23.624Z,6.17
2018-10-18T09:02:53.601Z,10.50
2018-10-18T09:05:22.900Z,7.37
2018-10-18T09:07:52.277Z,7.53
2018-10-18T09:10:21.582Z,9.40
2018-10-18T09:12:50.888Z,7.73
2018-10-18T09:15:20.237Z,7.60
2018-10-18T09:17:49.622Z,6.23
2018-10-18T09:20:18.976Z,9.30
2018-10-18T09:22:48.269Z,9.87
2018-10-18T09:25:17.660Z,5.00
2018-10-18T09:27:46.926Z,7.70
2018-10-18T09:30:16.291Z,7.13
2018-10-18T09:32:45.572Z,4.00
2018-10-18T09:35:14.893Z,6.57
2018-10-18T09:37:44.198Z,7.40
2018-10-18T09:40:13.720Z,6.40
2018-10-18T09:42:43.023Z,3.53
2018-10-18T09:45:13.098Z,5.83
2018-10-18T09:47:42.526Z,4.07
2018-10-18T09:50:12.588Z,5.03
2018-10-18T09:52:41.926Z,7.20
2018-10-18T09:55:12.571Z,5.80
2018-10-18T09:57:42.202Z,9.03
2018-10-18T10:00:16.704Z,6.03
2018-10-18T10:02:51.275Z,8.37
2018-10-18T10:05:20.984Z,6.60
2018-10-18T10:07:50.791Z,5.00
2018-10-18T10:10:21.042Z,6.03
2018-10-18T10:12:50.406Z,8.67
2018-10-18T10:15:19.793Z,6.73
2018-10-18T10:17:49.246Z,8.10
2018-10-18T10:20:18.737Z,5.30
2018-10-18T10:22:48.138Z,8.70
2018-10-18T10:25:18.389Z,7.70
2018-10-18T10:27:47.610Z,5.80
2018-10-18T10:30:17.001Z,9.47
2018-10-18T10:32:46.252Z,5.70
2018-10-18T10:35:16.371Z,10.40
2018-10-18T10:37:45.658Z,5.57
2018-10-18T10:40:15.887Z,6.00
2018-10-18T10:42:45.303Z,5.93
2018-10-18T10:45:14.762Z,6.50
2018-10-18T10:47:44.187Z,5.67
2018-10-18T10:50:14.413Z,5.37
2018-10-18T10:52:43.726Z,5.90
2018-10-18T10:55:13.030Z,8.50
2018-10-18T10:57:42.348Z,6.17
2018-10-18T11:00:11.853Z,5.93
2018-10-18T11:02:41.118Z,7.87
2018-10-18T11:05:10.404Z,7.97
2018-10-18T11:07:39.886Z,7.27
2018-10-18T11:10:09.255Z,8.13
2018-10-18T11:12:38.635Z,8.07
2018-10-18T11:15:08.034Z,6.37
2018-10-18T11:17:37.358Z,7.80
2018-10-18T11:20:07.078Z,7.47
2018-10-18T11:22:36.292Z,6.03
2018-10-18T11:25:07.130Z,8.97
2018-10-18T11:27:36.464Z,5.13
2018-10-18T11:30:06.135Z,7.83
2018-10-18T11:32:35.400Z,5.20
2018-10-18T11:35:05.308Z,4.20
2018-10-18T11:37:34.615Z,6.10
2018-10-18T11:40:03.991Z,7.40
2018-10-18T11:42:33.524Z,4.80
2018-10-18T11:45:02.886Z,6.30
2018-10-18T11:47:32.237Z,5.77
2018-10-18T11:50:01.593Z,7.53
2018-10-18T11:52:30.920Z,5.93
2018-10-18T11:55:00.217Z,9.07
2018-10-18T11:57:29.651Z,7.10
2018-10-18T11:59:59.041Z,5.70
2018-10-18T12:02:28.519Z,5.30
2018-10-18T12:04:57.829Z,5.93
2018-10-18T12:07:27.210Z,4.53
2018-10-18T12:09:56.516Z,7.53
2018-10-18T12:12:25.793Z,5.60
2018-10-18T12:14:55.346Z,5.83
2018-10-18T12:17:24.651Z,7.97
2018-10-18T12:19:54.047Z,6.30
2018-10-18T12:22:23.370Z,5.27
2018-10-18T12:24:52.774Z,3.20
2018-10-18T12:27:22.110Z,5.43
2018-10-18T12:29:51.472Z,3.83
2018-10-18T12:32:20.819Z,6.43
2018-10-18T12:34:50.311Z,8.73
2018-10-18T12:37:19.650Z,6.13
2018-10-18T12:39:48.973Z,6.63
2018-10-18T12:42:18.317Z,5.63
2018-10-18T12:44:47.656Z,5.27
2018-10-18T12:47:17.009Z,4.30
2018-10-18T12:49:47.003Z,5.17
2018-10-18T12:52:17.208Z,4.63
2018-10-18T12:54:46.509Z,5.63
2018-10-18T12:57:15.834Z,3.23
2018-10-18T12:59:45.901Z,5.03
2018-10-18T13:02:18.699Z,6.23
2018-10-18T13:04:47.995Z,4.73
2018-10-18T13:07:17.332Z,6.40
2018-10-18T13:09:46.688Z,7.40
2018-10-18T13:12:16.528Z,5.57
2018-10-18T13:14:45.749Z,4.20
2018-10-18T13:17:15.969Z,3.43
2018-10-18T13:19:45.318Z,4.40
2018-10-18T13:22:14.623Z,6.57
2018-10-18T13:24:43.998Z,6.80
2018-10-18T13:27:13.333Z,5.17
2018-10-18T13:29:43.247Z,6.67
2018-10-18T13:32:13.431Z,6.40
2018-10-18T13:34:42.741Z,4.33
2018-10-18T13:37:12.071Z,10.83
2018-10-18T13:39:41.793Z,4.83
2018-10-18T13:42:11.326Z,3.77
2018-10-18T13:44:40.649Z,4.93
2018-10-18T13:47:09.976Z,5.47
2018-10-18T13:49:40.020Z,5.37
2018-10-18T13:52:09.388Z,6.30
2018-10-18T13:54:38.792Z,5.07
2018-10-18T13:57:08.154Z,6.20
2018-10-18T13:59:48.612Z,9.57
2018-10-18T14:02:17.964Z,5.40
2018-10-18T14:04:47.301Z,5.17
2018-10-18T14:07:16.655Z,7.27
2018-10-18T14:09:45.988Z,7.17
2018-10-18T14:12:15.410Z,7.47
2018-10-18T14:14:44.768Z,6.53
2018-10-18T14:17:14.224Z,7.73
2018-10-18T14:19:43.586Z,6.63
2018-10-18T14:22:12.866Z,9.20
2018-10-18T14:24:42.147Z,7.00
2018-10-18T14:27:11.514Z,6.73
2018-10-18T14:29:40.821Z,7.00
2018-10-18T14:32:10.269Z,7.97
2018-10-18T14:34:39.763Z,8.70
2018-10-18T14:37:09.146Z,7.30
2018-10-18T14:39:38.501Z,7.47
2018-10-18T14:42:07.805Z,5.73
2018-10-18T14:44:37.257Z,5.73
2018-10-18T14:47:07.722Z,9.07
2018-10-18T14:49:36.995Z,7.87
2018-10-18T14:52:06.853Z,8.60
2018-10-18T14:54:36.120Z,7.03
2018-10-18T14:57:05.597Z,7.63
2018-10-18T14:59:35.190Z,7.83
2018-10-18T15:02:05.199Z,7.83
2018-10-18T15:04:34.656Z,3.27
2018-10-18T15:07:04.150Z,9.57
2018-10-18T15:09:34.048Z,6.67
2018-10-18T15:12:03.429Z,8.77
2018-10-18T15:14:32.802Z,6.80
2018-10-18T15:17:02.423Z,5.40
2018-10-18T15:19:31.830Z,6.20
2018-10-18T15:22:01.408Z,9.83
2018-10-18T15:24:30.844Z,7.67
2018-10-18T15:27:00.354Z,5.67
2018-10-18T15:29:30.317Z,7.50
2018-10-18T15:31:59.739Z,5.87
2018-10-18T15:34:29.038Z,10.10
2018-10-18T15:36:58.406Z,8.43
2018-10-18T15:39:27.807Z,4.57
2018-10-18T15:41:57.249Z,5.20
2018-10-18T15:44:26.573Z,6.40
2018-10-18T15:46:55.908Z,6.13
2018-10-18T15:49:25.311Z,9.30
2018-10-18T15:51:54.640Z,6.77
2018-10-18T15:54:24.014Z,7.73
2018-10-18T15:56:53.705Z,8.20
2018-10-18T15:59:22.989Z,11.30
2018-10-18T16:01:52.365Z,7.50
2018-10-18T16:04:21.674Z,8.83
2018-10-18T16:06:51.467Z,6.00
2018-10-18T16:09:20.859Z,6.27
2018-10-18T16:11:50.343Z,6.97
2018-10-18T16:14:19.712Z,7.00
2018-10-18T16:16:48.997Z,9.10
2018-10-18T16:19:18.301Z,7.73
2018-10-18T16:21:47.775Z,6.20
2018-10-18T16:24:17.089Z,9.03
2018-10-18T16:26:46.357Z,6.23
2018-10-18T16:29:15.902Z,5.67
2018-10-18T16:31:45.027Z,5.53
2018-10-18T16:34:14.915Z,9.53
2018-10-18T16:36:44.259Z,6.83
2018-10-18T16:39:14.308Z,6.93
2018-10-18T16:41:43.928Z,5.10
2018-10-18T16:44:13.355Z,10.60
2018-10-18T16:46:42.716Z,8.20
2018-10-18T16:49:12.143Z,7.93
2018-10-18T16:51:41.500Z,9.90
2018-10-18T16:54:10.990Z,7.70
2018-10-18T16:56:40.354Z,8.50
2018-10-18T16:59:10.099Z,5.37
2018-10-18T17:01:39.487Z,6.73
2018-10-18T17:04:08.857Z,7.70
2018-10-18T17:06:38.288Z,7.13
2018-10-18T17:09:10.514Z,7.33
2018-10-18T17:11:39.946Z,5.80
2018-10-18T17:14:09.248Z,6.00
2018-10-18T17:16:38.569Z,9.20
2018-10-18T17:19:07.901Z,6.63
2018-10-18T17:21:37.289Z,9.23
2018-10-18T17:24:06.751Z,5.17
2018-10-18T17:26:36.001Z,4.60
2018-10-18T17:29:05.512Z,8.07
2018-10-18T17:31:34.834Z,6.70
2018-10-18T17:34:04.304Z,8.73
2018-10-18T17:36:33.691Z,5.97
2018-10-18T17:39:03.321Z,5.33
2018-10-18T17:41:33.134Z,7.10
2018-10-18T17:44:02.495Z,6.33
2018-10-18T17:46:31.870Z,6.17
2018-10-18T17:49:01.224Z,8.30
2018-10-18T17:51:30.572Z,8.17
2018-10-18T17:54:00.062Z,5.83
2018-10-18T17:56:29.382Z,7.23
2018-10-18T17:58:58.780Z,6.67
2018-10-18T18:01:28.162Z,6.17
2018-10-18T18:03:57.623Z,8.57
2018-10-18T18:06:27.111Z,10.07
2018-10-18T18:08:56.261Z,7.37
2018-10-18T18:11:25.909Z,5.97
2018-10-18T18:13:55.238Z,7.00
2018-10-18T18:16:24.565Z,7.10
2018-10-18T18:18:53.884Z,5.77
2018-10-18T18:21:23.171Z,7.83
2018-10-18T18:23:52.570Z,8.57
2018-10-18T18:26:32.395Z,6.73
2018-10-18T18:28:51.327Z,5.33
2018-10-18T18:31:20.638Z,9.70
2018-10-18T18:33:49.993Z,6.20
2018-10-18T18:36:19.331Z,7.63
2018-10-18T18:38:48.657Z,7.03
2018-10-18T18:41:18.086Z,8.03
2018-10-18T18:43:47.416Z,6.93
2018-10-18T18:46:16.809Z,5.97
2018-10-18T18:48:46.100Z,5.60
2018-10-18T18:51:15.553Z,4.67
2018-10-18T18:53:44.827Z,5.83
2018-10-18T18:56:14.166Z,6.20
2018-10-18T18:58:43.503Z,5.90
2018-10-18T19:01:12.789Z,6.43
2018-10-18T19:03:42.394Z,7.33
2018-10-18T19:06:12.553Z,4.07
2018-10-18T19:08:42.519Z,4.03
2018-10-18T19:11:11.825Z,8.47
2018-10-18T19:13:41.137Z,4.90
2018-10-18T19:16:11.063Z,7.27
2018-10-18T19:18:40.556Z,6.73
2018-10-18T19:21:10.050Z,6.53
2018-10-18T19:23:39.425Z,8.10
2018-10-18T19:26:08.802Z,4.47
2018-10-18T19:28:38.210Z,7.33
2018-10-18T19:31:07.586Z,4.50
2018-10-18T19:33:36.935Z,4.97
2018-10-18T19:36:06.311Z,5.80
2018-10-18T19:38:35.856Z,4.47
2018-10-18T19:41:05.241Z,6.93
2018-10-18T19:43:34.601Z,5.80
2018-10-18T19:46:03.989Z,6.83
2018-10-18T19:48:33.292Z,7.50
2018-10-18T19:51:02.610Z,4.80
2018-10-18T19:53:32.058Z,5.40
2018-10-18T19:56:01.392Z,6.03
2018-10-18T19:58:30.743Z,5.83
2018-10-18T20:01:00.154Z,4.53
2018-10-18T20:03:29.459Z,6.87
2018-10-18T20:05:59.517Z,6.90
2018-10-18T20:08:28.891Z,5.73
2018-10-18T20:10:58.250Z,6.33
2018-10-18T20:13:27.658Z,3.90
2018-10-18T20:15:57.158Z,3.27
2018-10-18T20:18:26.522Z,3.33
2018-10-18T20:20:55.859Z,7.33
2018-10-18T20:23:25.148Z,5.43
2018-10-18T20:25:54.622Z,4.87
2018-10-18T20:28:23.752Z,4.93
2018-10-18T20:30:53.058Z,4.87
2018-10-18T20:33:22.388Z,5.13
2018-10-18T20:35:51.664Z,6.93
2018-10-18T20:38:20.966Z,8.67
2018-10-18T20:40:50.313Z,5.60
2018-10-18T20:43:19.630Z,8.90
2018-10-18T20:45:48.997Z,5.17
2018-10-18T20:48:18.298Z,5.77
2018-10-18T20:50:47.639Z,4.23
2018-10-18T20:53:16.999Z,3.80
2018-10-18T20:55:46.302Z,4.00
2018-10-18T20:58:15.673Z,5.63
2018-10-18T21:00:45.024Z,8.67
2018-10-18T21:03:14.407Z,6.00
2018-10-18T21:05:43.623Z,4.60
2018-10-18T21:08:12.986Z,4.67
2018-10-18T21:10:42.343Z,6.37
2018-10-18T21:13:11.694Z,6.93
2018-10-18T21:15:40.979Z,4.10
2018-10-18T21:18:10.452Z,7.40
2018-10-18T21:20:39.840Z,4.27
2018-10-18T21:23:09.207Z,6.57
2018-10-18T21:25:38.509Z,2.67
2018-10-18T21:28:07.843Z,5.17
2018-10-18T21:30:37.825Z,6.30
2018-10-18T21:33:07.129Z,3.37
2018-10-18T21:35:36.407Z,8.83
2018-10-18T21:38:05.697Z,4.33
2018-10-18T21:40:35.010Z,5.87
2018-10-18T21:43:04.401Z,7.57
2018-10-18T21:45:33.923Z,8.50
2018-10-18T21:48:03.361Z,9.40
2018-10-18T21:50:32.646Z,9.23
2018-10-18T21:53:02.015Z,12.83
2018-10-18T21:55:31.361Z,9.10
2018-10-18T21:58:00.683Z,7.73
2018-10-18T22:00:33.646Z,6.30
2018-10-18T22:03:03.249Z,5.70
2018-10-18T22:05:32.629Z,9.87
2018-10-18T22:08:01.919Z,7.13
2018-10-18T22:10:31.269Z,9.80
2018-10-18T22:13:00.562Z,6.93
2018-10-18T22:15:29.934Z,7.20
2018-10-18T22:17:59.204Z,8.40
2018-10-18T22:20:28.697Z,6.63
2018-10-18T22:22:58.107Z,6.20
2018-10-18T22:25:27.355Z,8.47
2018-10-18T22:27:57.281Z,4.50
2018-10-18T22:30:26.591Z,6.13
2018-10-18T22:32:55.990Z,5.23
2018-10-18T22:35:25.257Z,4.23
2018-10-18T22:37:54.552Z,6.00
2018-10-18T22:40:23.872Z,5.77
2018-10-18T22:42:53.293Z,5.33
2018-10-18T22:45:22.654Z,8.47
2018-10-18T22:47:52.005Z,6.73
2018-10-18T22:50:21.291Z,5.10
2018-10-18T22:52:50.621Z,8.97
2018-10-18T22:55:19.982Z,6.90
2018-10-18T22:57:49.231Z,5.20
2018-10-18T23:00:18.585Z,8.80
2018-10-18T23:02:47.863Z,7.63
2018-10-18T23:05:17.218Z,4.17
2018-10-18T23:07:46.428Z,5.57
2018-10-18T23:10:15.724Z,5.07
2018-10-18T23:12:45.259Z,4.70
2018-10-18T23:15:14.649Z,6.07
2018-10-18T23:17:44.001Z,10.50
2018-10-18T23:20:13.314Z,6.27
2018-10-18T23:22:42.675Z,7.50
2018-10-18T23:25:12.798Z,9.33
2018-10-18T23:27:42.150Z,5.63
2018-10-18T23:30:11.560Z,8.40
2018-10-18T23:32:41.415Z,6.77
2018-10-18T23:35:10.770Z,5.80
2018-10-18T23:37:40.103Z,5.67
2018-10-18T23:40:09.437Z,7.73
2018-10-18T23:42:38.817Z,7.13
2018-10-18T23:45:08.715Z,6.70
2018-10-18T23:47:38.072Z,6.63
2018-10-18T23:50:07.433Z,11.40
2018-10-18T23:52:36.801Z,8.03
